In Rescue
 
Open Full Screen Window  High Contrast Mode
Wind Gusting 00 knots
09
January 17, 2021 1:55 PM EST
Weather Information
Wind Direction
  270 °
Wind Speed
  09 kt (10 mph)
Wind Gust
  00 kt (0 mph)
Altimeter
29.64 in
Visibility
10 SM
Temperature
03° C
37° F
Dewpoint
00° C
32° F
Humidity
81%
1hr Rain Fall
00.00 in.
24hr Rain Fall
00.00 in.
Sky Condition
Overcast @ 4,800 ft
Broken @ 4,100 ft
Scattered @ 1,900 ft
VFR

METAR KONZ 171855Z AUTO 27009KT 10SM SCT019 BKN041 OVC048 03/00 A2964 RMK AO2 T00260000

FAA Disclaimer: The data displayed is for advisory purposes only and is not to be used for flight planning or operations.